sensor_id;sensor_type;location;lat;lon;timestamp;P1;durP1;ratioP1;P2;durP2;ratioP2
19038;SDS011;9652;49.014;12.052;2023-02-15T00:02:00;10.63;;;7.40;;
19038;SDS011;9652;49.014;12.052;2023-02-15T00:04:27;11.80;;;7.80;;
19038;SDS011;9652;49.014;12.052;2023-02-15T00:07:12;11.50;;;7.63;;
19038;SDS011;9652;49.014;12.052;2023-02-15T00:09:41;8.60;;;6.53;;
19038;SDS011;9652;49.014;12.052;2023-02-15T00:12:08;9.50;;;6.50;;
19038;SDS011;9652;49.014;12.052;2023-02-15T00:14:36;11.20;;;7.43;;
19038;SDS011;9652;49.014;12.052;2023-02-15T00:17:04;11.53;;;7.40;;
19038;SDS011;9652;49.014;12.052;2023-02-15T00:19:31;11.97;;;7.20;;
19038;SDS011;9652;49.014;12.052;2023-02-15T00:21:58;11.20;;;7.07;;
19038;SDS011;9652;49.014;12.052;2023-02-15T00:24:26;12.67;;;7.17;;
19038;SDS011;9652;49.014;12.052;2023-02-15T00:26:53;12.30;;;7.33;;
19038;SDS011;9652;49.014;12.052;2023-02-15T00:29:20;11.20;;;6.53;;
19038;SDS011;9652;49.014;12.052;2023-02-15T00:31:48;9.93;;;7.40;;
19038;SDS011;9652;49.014;12.052;2023-02-15T00:34:18;9.80;;;6.53;;
19038;SDS011;9652;49.014;12.052;2023-02-15T00:36:47;12.00;;;7.50;;
19038;SDS011;9652;49.014;12.052;2023-02-15T00:39:15;13.73;;;8.13;;
19038;SDS011;9652;49.014;12.052;2023-02-15T00:41:44;11.53;;;7.23;;
19038;SDS011;9652;49.014;12.052;2023-02-15T00:44:12;9.90;;;7.13;;
19038;SDS011;9652;49.014;12.052;2023-02-15T00:46:40;13.07;;;7.97;;
19038;SDS011;9652;49.014;12.052;2023-02-15T00:49:08;10.07;;;7.60;;
19038;SDS011;9652;49.014;12.052;2023-02-15T00:51:38;13.20;;;7.47;;
19038;SDS011;9652;49.014;12.052;2023-02-15T00:54:05;12.37;;;7.50;;
19038;SDS011;9652;49.014;12.052;2023-02-15T00:56:33;10.50;;;6.63;;
19038;SDS011;9652;49.014;12.052;2023-02-15T00:59:00;13.17;;;7.00;;
19038;SDS011;9652;49.014;12.052;2023-02-15T01:01:27;12.63;;;7.10;;
19038;SDS011;9652;49.014;12.052;2023-02-15T01:03:54;11.33;;;7.63;;
19038;SDS011;9652;49.014;12.052;2023-02-15T01:06:22;13.50;;;7.00;;
19038;SDS011;9652;49.014;12.052;2023-02-15T01:08:50;12.83;;;6.77;;
19038;SDS011;9652;49.014;12.052;2023-02-15T01:11:19;13.23;;;7.37;;
19038;SDS011;9652;49.014;12.052;2023-02-15T01:13:49;11.17;;;6.97;;
19038;SDS011;9652;49.014;12.052;2023-02-15T01:16:18;12.50;;;6.60;;
19038;SDS011;9652;49.014;12.052;2023-02-15T01:18:47;11.40;;;6.63;;
19038;SDS011;9652;49.014;12.052;2023-02-15T01:21:15;13.13;;;7.10;;
19038;SDS011;9652;49.014;12.052;2023-02-15T01:23:45;11.10;;;7.07;;
19038;SDS011;9652;49.014;12.052;2023-02-15T01:26:14;11.47;;;6.97;;
19038;SDS011;9652;49.014;12.052;2023-02-15T01:28:43;13.83;;;8.27;;
19038;SDS011;9652;49.014;12.052;2023-02-15T01:31:11;11.77;;;7.80;;
19038;SDS011;9652;49.014;12.052;2023-02-15T01:33:40;11.87;;;6.80;;
19038;SDS011;9652;49.014;12.052;2023-02-15T01:36:08;11.03;;;6.60;;
19038;SDS011;9652;49.014;12.052;2023-02-15T01:38:37;11.93;;;6.70;;
19038;SDS011;9652;49.014;12.052;2023-02-15T01:41:06;12.30;;;8.13;;
19038;SDS011;9652;49.014;12.052;2023-02-15T01:43:50;12.47;;;7.53;;
19038;SDS011;9652;49.014;12.052;2023-02-15T01:46:22;12.33;;;7.60;;
19038;SDS011;9652;49.014;12.052;2023-02-15T01:48:55;10.27;;;6.00;;
19038;SDS011;9652;49.014;12.052;2023-02-15T01:51:30;13.17;;;7.57;;
19038;SDS011;9652;49.014;12.052;2023-02-15T01:54:01;11.17;;;7.43;;
19038;SDS011;9652;49.014;12.052;2023-02-15T01:56:35;12.27;;;6.97;;
19038;SDS011;9652;49.014;12.052;2023-02-15T01:59:08;11.00;;;7.30;;
19038;SDS011;9652;49.014;12.052;2023-02-15T02:01:41;12.60;;;7.40;;
19038;SDS011;9652;49.014;12.052;2023-02-15T02:04:11;12.03;;;7.20;;
19038;SDS011;9652;49.014;12.052;2023-02-15T02:06:45;11.13;;;6.60;;
19038;SDS011;9652;49.014;12.052;2023-02-15T02:09:16;12.70;;;7.90;;
19038;SDS011;9652;49.014;12.052;2023-02-15T02:11:44;12.60;;;7.37;;
19038;SDS011;9652;49.014;12.052;2023-02-15T02:14:15;14.70;;;7.90;;
19038;SDS011;9652;49.014;12.052;2023-02-15T02:16:45;10.97;;;6.27;;
19038;SDS011;9652;49.014;12.052;2023-02-15T02:22:53;10.40;;;6.47;;
19038;SDS011;9652;49.014;12.052;2023-02-15T02:25:53;10.87;;;7.30;;
19038;SDS011;9652;49.014;12.052;2023-02-15T02:29:12;11.17;;;6.67;;
19038;SDS011;9652;49.014;12.052;2023-02-15T02:32:22;11.63;;;6.67;;
19038;SDS011;9652;49.014;12.052;2023-02-15T02:35:15;11.47;;;7.27;;
19038;SDS011;9652;49.014;12.052;2023-02-15T02:37:55;15.13;;;6.50;;
19038;SDS011;9652;49.014;12.052;2023-02-15T02:40:38;11.50;;;6.77;;
19038;SDS011;9652;49.014;12.052;2023-02-15T02:43:20;10.97;;;6.97;;
19038;SDS011;9652;49.014;12.052;2023-02-15T02:45:55;12.67;;;6.67;;
19038;SDS011;9652;49.014;12.052;2023-02-15T02:48:30;11.07;;;6.77;;
19038;SDS011;9652;49.014;12.052;2023-02-15T02:51:01;12.90;;;6.70;;
19038;SDS011;9652;49.014;12.052;2023-02-15T02:53:28;12.77;;;7.40;;
19038;SDS011;9652;49.014;12.052;2023-02-15T02:56:01;10.40;;;6.27;;
19038;SDS011;9652;49.014;12.052;2023-02-15T02:58:46;11.07;;;7.43;;
19038;SDS011;9652;49.014;12.052;2023-02-15T03:01:20;12.53;;;7.17;;
19038;SDS011;9652;49.014;12.052;2023-02-15T03:03:52;12.63;;;7.30;;
19038;SDS011;9652;49.014;12.052;2023-02-15T03:06:29;10.93;;;7.77;;
19038;SDS011;9652;49.014;12.052;2023-02-15T03:09:06;12.60;;;7.37;;
19038;SDS011;9652;49.014;12.052;2023-02-15T03:11:41;11.37;;;6.90;;
19038;SDS011;9652;49.014;12.052;2023-02-15T03:14:12;9.83;;;6.63;;
19038;SDS011;9652;49.014;12.052;2023-02-15T03:16:43;10.27;;;7.20;;
19038;SDS011;9652;49.014;12.052;2023-02-15T03:19:15;12.47;;;7.47;;
19038;SDS011;9652;49.014;12.052;2023-02-15T03:21:50;12.67;;;7.43;;
19038;SDS011;9652;49.014;12.052;2023-02-15T03:24:30;13.03;;;7.50;;
19038;SDS011;9652;49.014;12.052;2023-02-15T03:27:02;11.07;;;7.37;;
19038;SDS011;9652;49.014;12.052;2023-02-15T03:29:36;12.80;;;7.03;;
19038;SDS011;9652;49.014;12.052;2023-02-15T03:32:05;12.17;;;7.27;;
19038;SDS011;9652;49.014;12.052;2023-02-15T03:34:36;14.63;;;7.63;;
19038;SDS011;9652;49.014;12.052;2023-02-15T03:37:07;11.43;;;7.20;;
19038;SDS011;9652;49.014;12.052;2023-02-15T03:39:42;11.43;;;7.17;;
19038;SDS011;9652;49.014;12.052;2023-02-15T03:42:17;10.57;;;6.60;;
19038;SDS011;9652;49.014;12.052;2023-02-15T03:44:54;12.87;;;6.77;;
19038;SDS011;9652;49.014;12.052;2023-02-15T03:47:29;12.50;;;7.60;;
19038;SDS011;9652;49.014;12.052;2023-02-15T03:50:01;11.27;;;6.70;;
19038;SDS011;9652;49.014;12.052;2023-02-15T03:52:54;9.60;;;6.77;;
19038;SDS011;9652;49.014;12.052;2023-02-15T03:55:24;11.60;;;7.60;;
19038;SDS011;9652;49.014;12.052;2023-02-15T03:57:51;11.57;;;6.83;;
19038;SDS011;9652;49.014;12.052;2023-02-15T04:00:45;10.93;;;7.30;;
19038;SDS011;9652;49.014;12.052;2023-02-15T04:03:36;11.57;;;6.53;;
19038;SDS011;9652;49.014;12.052;2023-02-15T04:06:09;11.17;;;6.80;;
19038;SDS011;9652;49.014;12.052;2023-02-15T04:08:37;7.87;;;6.00;;
19038;SDS011;9652;49.014;12.052;2023-02-15T04:11:22;11.40;;;7.23;;
19038;SDS011;9652;49.014;12.052;2023-02-15T04:13:49;11.17;;;7.27;;
19038;SDS011;9652;49.014;12.052;2023-02-15T04:16:21;11.33;;;6.67;;
19038;SDS011;9652;49.014;12.052;2023-02-15T04:18:47;11.80;;;6.77;;
19038;SDS011;9652;49.014;12.052;2023-02-15T04:21:32;11.40;;;6.10;;
19038;SDS011;9652;49.014;12.052;2023-02-15T04:24:18;9.80;;;6.73;;
19038;SDS011;9652;49.014;12.052;2023-02-15T04:27:04;9.77;;;6.37;;
19038;SDS011;9652;49.014;12.052;2023-02-15T04:29:31;8.20;;;5.57;;
19038;SDS011;9652;49.014;12.052;2023-02-15T04:31:59;8.23;;;6.03;;
19038;SDS011;9652;49.014;12.052;2023-02-15T04:34:27;10.07;;;6.83;;
19038;SDS011;9652;49.014;12.052;2023-02-15T04:36:54;9.97;;;6.80;;
19038;SDS011;9652;49.014;12.052;2023-02-15T04:39:23;9.37;;;6.20;;
19038;SDS011;9652;49.014;12.052;2023-02-15T04:41:50;11.33;;;7.57;;
19038;SDS011;9652;49.014;12.052;2023-02-15T04:44:17;10.17;;;6.43;;
19038;SDS011;9652;49.014;12.052;2023-02-15T04:46:44;14.13;;;7.53;;
19038;SDS011;9652;49.014;12.052;2023-02-15T04:49:11;13.23;;;8.97;;
19038;SDS011;9652;49.014;12.052;2023-02-15T04:51:38;9.27;;;6.67;;
19038;SDS011;9652;49.014;12.052;2023-02-15T04:54:05;11.30;;;7.77;;
19038;SDS011;9652;49.014;12.052;2023-02-15T04:56:33;11.10;;;6.77;;
19038;SDS011;9652;49.014;12.052;2023-02-15T04:59:02;11.17;;;7.33;;
19038;SDS011;9652;49.014;12.052;2023-02-15T05:01:30;10.00;;;7.20;;
19038;SDS011;9652;49.014;12.052;2023-02-15T05:03:57;12.20;;;7.37;;
19038;SDS011;9652;49.014;12.052;2023-02-15T05:06:24;8.83;;;6.50;;
19038;SDS011;9652;49.014;12.052;2023-02-15T05:08:51;11.23;;;7.57;;
19038;SDS011;9652;49.014;12.052;2023-02-15T05:11:18;11.33;;;6.53;;
19038;SDS011;9652;49.014;12.052;2023-02-15T05:13:46;11.73;;;7.00;;
19038;SDS011;9652;49.014;12.052;2023-02-15T05:16:13;11.27;;;7.37;;
19038;SDS011;9652;49.014;12.052;2023-02-15T05:18:40;10.70;;;7.33;;
19038;SDS011;9652;49.014;12.052;2023-02-15T05:21:07;11.13;;;7.33;;
19038;SDS011;9652;49.014;12.052;2023-02-15T05:23:34;12.43;;;7.03;;
19038;SDS011;9652;49.014;12.052;2023-02-15T05:26:01;8.90;;;6.70;;
19038;SDS011;9652;49.014;12.052;2023-02-15T05:28:47;10.70;;;6.63;;
19038;SDS011;9652;49.014;12.052;2023-02-15T05:31:15;9.43;;;6.73;;
19038;SDS011;9652;49.014;12.052;2023-02-15T05:33:44;12.73;;;7.30;;
19038;SDS011;9652;49.014;12.052;2023-02-15T05:36:12;10.13;;;7.10;;
19038;SDS011;9652;49.014;12.052;2023-02-15T05:38:39;8.80;;;6.53;;
19038;SDS011;9652;49.014;12.052;2023-02-15T05:41:07;10.27;;;6.97;;
19038;SDS011;9652;49.014;12.052;2023-02-15T05:43:36;9.60;;;7.17;;
19038;SDS011;9652;49.014;12.052;2023-02-15T05:46:05;10.70;;;6.87;;
19038;SDS011;9652;49.014;12.052;2023-02-15T05:48:33;11.13;;;7.93;;
19038;SDS011;9652;49.014;12.052;2023-02-15T05:51:01;9.73;;;7.23;;
19038;SDS011;9652;49.014;12.052;2023-02-15T05:53:31;11.53;;;7.60;;
19038;SDS011;9652;49.014;12.052;2023-02-15T05:56:01;9.10;;;6.50;;
19038;SDS011;9652;49.014;12.052;2023-02-15T05:58:31;9.40;;;6.93;;
19038;SDS011;9652;49.014;12.052;2023-02-15T06:01:08;11.57;;;7.07;;
19038;SDS011;9652;49.014;12.052;2023-02-15T06:03:36;14.43;;;8.57;;
19038;SDS011;9652;49.014;12.052;2023-02-15T06:06:03;11.80;;;6.67;;
19038;SDS011;9652;49.014;12.052;2023-02-15T06:08:31;10.37;;;7.20;;
19038;SDS011;9652;49.014;12.052;2023-02-15T06:11:00;10.37;;;6.70;;
19038;SDS011;9652;49.014;12.052;2023-02-15T06:13:27;11.10;;;6.93;;
19038;SDS011;9652;49.014;12.052;2023-02-15T06:15:54;10.90;;;7.60;;
19038;SDS011;9652;49.014;12.052;2023-02-15T06:18:23;10.20;;;6.70;;
19038;SDS011;9652;49.014;12.052;2023-02-15T06:20:50;11.53;;;7.30;;
19038;SDS011;9652;49.014;12.052;2023-02-15T06:23:18;11.17;;;7.07;;
19038;SDS011;9652;49.014;12.052;2023-02-15T06:25:46;9.67;;;6.50;;
19038;SDS011;9652;49.014;12.052;2023-02-15T06:28:13;12.47;;;7.33;;
19038;SDS011;9652;49.014;12.052;2023-02-15T06:30:40;14.07;;;8.00;;
19038;SDS011;9652;49.014;12.052;2023-02-15T06:33:07;11.50;;;7.43;;
19038;SDS011;9652;49.014;12.052;2023-02-15T06:35:35;13.37;;;7.37;;
19038;SDS011;9652;49.014;12.052;2023-02-15T06:38:02;10.93;;;7.30;;
19038;SDS011;9652;49.014;12.052;2023-02-15T06:40:29;9.77;;;7.03;;
19038;SDS011;9652;49.014;12.052;2023-02-15T06:42:57;11.47;;;7.23;;
19038;SDS011;9652;49.014;12.052;2023-02-15T06:45:24;12.00;;;7.87;;
19038;SDS011;9652;49.014;12.052;2023-02-15T06:47:51;10.97;;;6.83;;
19038;SDS011;9652;49.014;12.052;2023-02-15T06:50:18;10.97;;;7.23;;
19038;SDS011;9652;49.014;12.052;2023-02-15T06:52:47;11.13;;;7.00;;
19038;SDS011;9652;49.014;12.052;2023-02-15T06:55:14;9.37;;;6.23;;
19038;SDS011;9652;49.014;12.052;2023-02-15T06:57:41;10.10;;;6.70;;
19038;SDS011;9652;49.014;12.052;2023-02-15T07:00:08;9.83;;;7.10;;
19038;SDS011;9652;49.014;12.052;2023-02-15T07:02:37;11.37;;;7.30;;
19038;SDS011;9652;49.014;12.052;2023-02-15T07:05:04;9.90;;;6.57;;
19038;SDS011;9652;49.014;12.052;2023-02-15T07:07:31;9.83;;;7.00;;
19038;SDS011;9652;49.014;12.052;2023-02-15T07:10:00;10.27;;;7.30;;
19038;SDS011;9652;49.014;12.052;2023-02-15T07:12:27;8.00;;;7.03;;
19038;SDS011;9652;49.014;12.052;2023-02-15T07:15:09;11.77;;;7.53;;
19038;SDS011;9652;49.014;12.052;2023-02-15T07:17:38;9.17;;;7.37;;
19038;SDS011;9652;49.014;12.052;2023-02-15T07:20:07;8.47;;;6.20;;
19038;SDS011;9652;49.014;12.052;2023-02-15T07:22:37;12.03;;;7.97;;
19038;SDS011;9652;49.014;12.052;2023-02-15T07:25:07;10.63;;;7.00;;
19038;SDS011;9652;49.014;12.052;2023-02-15T07:27:36;10.93;;;7.03;;
19038;SDS011;9652;49.014;12.052;2023-02-15T07:30:04;10.10;;;7.03;;
19038;SDS011;9652;49.014;12.052;2023-02-15T07:32:35;10.20;;;7.37;;
19038;SDS011;9652;49.014;12.052;2023-02-15T07:35:22;9.70;;;7.07;;
19038;SDS011;9652;49.014;12.052;2023-02-15T07:37:49;9.73;;;7.70;;
19038;SDS011;9652;49.014;12.052;2023-02-15T07:40:19;10.37;;;6.10;;
19038;SDS011;9652;49.014;12.052;2023-02-15T07:42:48;13.17;;;6.90;;
19038;SDS011;9652;49.014;12.052;2023-02-15T07:45:18;9.67;;;6.67;;
19038;SDS011;9652;49.014;12.052;2023-02-15T07:47:45;9.77;;;6.80;;
19038;SDS011;9652;49.014;12.052;2023-02-15T07:50:12;10.10;;;6.87;;
19038;SDS011;9652;49.014;12.052;2023-02-15T07:52:39;10.37;;;6.27;;
19038;SDS011;9652;49.014;12.052;2023-02-15T07:55:06;10.40;;;7.03;;
19038;SDS011;9652;49.014;12.052;2023-02-15T07:57:42;11.00;;;7.10;;
19038;SDS011;9652;49.014;12.052;2023-02-15T08:00:10;10.63;;;7.13;;
19038;SDS011;9652;49.014;12.052;2023-02-15T08:02:39;7.87;;;6.40;;
19038;SDS011;9652;49.014;12.052;2023-02-15T08:05:06;11.47;;;7.53;;
19038;SDS011;9652;49.014;12.052;2023-02-15T08:07:34;9.00;;;7.03;;
19038;SDS011;9652;49.014;12.052;2023-02-15T08:10:01;8.23;;;6.23;;
19038;SDS011;9652;49.014;12.052;2023-02-15T08:12:28;12.10;;;6.80;;
19038;SDS011;9652;49.014;12.052;2023-02-15T08:14:57;10.30;;;6.90;;
19038;SDS011;9652;49.014;12.052;2023-02-15T08:17:24;9.13;;;6.53;;
19038;SDS011;9652;49.014;12.052;2023-02-15T08:19:51;8.17;;;6.43;;
19038;SDS011;9652;49.014;12.052;2023-02-15T08:22:18;9.53;;;6.80;;
19038;SDS011;9652;49.014;12.052;2023-02-15T08:24:45;9.17;;;6.27;;
19038;SDS011;9652;49.014;12.052;2023-02-15T08:27:13;9.00;;;6.70;;
19038;SDS011;9652;49.014;12.052;2023-02-15T08:29:40;10.57;;;6.53;;
19038;SDS011;9652;49.014;12.052;2023-02-15T08:32:09;9.20;;;6.67;;
19038;SDS011;9652;49.014;12.052;2023-02-15T08:34:39;9.47;;;6.80;;
19038;SDS011;9652;49.014;12.052;2023-02-15T08:37:08;7.43;;;6.17;;
19038;SDS011;9652;49.014;12.052;2023-02-15T08:39:35;10.13;;;6.80;;
19038;SDS011;9652;49.014;12.052;2023-02-15T08:42:02;10.20;;;6.83;;
19038;SDS011;9652;49.014;12.052;2023-02-15T08:44:29;9.10;;;6.27;;
19038;SDS011;9652;49.014;12.052;2023-02-15T08:46:56;10.43;;;6.70;;
19038;SDS011;9652;49.014;12.052;2023-02-15T08:49:30;8.63;;;6.17;;
19038;SDS011;9652;49.014;12.052;2023-02-15T08:51:57;10.93;;;6.90;;
19038;SDS011;9652;49.014;12.052;2023-02-15T08:54:25;8.47;;;7.07;;
19038;SDS011;9652;49.014;12.052;2023-02-15T08:56:53;10.50;;;7.03;;
19038;SDS011;9652;49.014;12.052;2023-02-15T08:59:20;9.43;;;6.90;;
19038;SDS011;9652;49.014;12.052;2023-02-15T09:01:50;8.40;;;6.27;;
19038;SDS011;9652;49.014;12.052;2023-02-15T09:04:18;7.77;;;5.97;;
19038;SDS011;9652;49.014;12.052;2023-02-15T09:06:49;9.83;;;7.50;;
19038;SDS011;9652;49.014;12.052;2023-02-15T09:09:17;10.37;;;6.70;;
19038;SDS011;9652;49.014;12.052;2023-02-15T09:11:46;10.90;;;7.13;;
19038;SDS011;9652;49.014;12.052;2023-02-15T09:14:16;8.90;;;6.37;;
19038;SDS011;9652;49.014;12.052;2023-02-15T09:16:46;9.80;;;7.43;;
19038;SDS011;9652;49.014;12.052;2023-02-15T09:19:17;9.67;;;6.83;;
19038;SDS011;9652;49.014;12.052;2023-02-15T09:21:46;8.43;;;6.33;;
19038;SDS011;9652;49.014;12.052;2023-02-15T09:24:15;8.97;;;6.27;;
19038;SDS011;9652;49.014;12.052;2023-02-15T09:26:44;10.00;;;6.47;;
19038;SDS011;9652;49.014;12.052;2023-02-15T09:29:14;9.17;;;6.37;;
19038;SDS011;9652;49.014;12.052;2023-02-15T09:31:43;10.53;;;7.40;;
19038;SDS011;9652;49.014;12.052;2023-02-15T09:34:14;8.27;;;6.10;;
19038;SDS011;9652;49.014;12.052;2023-02-15T09:36:43;11.47;;;7.33;;
19038;SDS011;9652;49.014;12.052;2023-02-15T09:39:13;9.00;;;6.40;;
19038;SDS011;9652;49.014;12.052;2023-02-15T09:41:50;11.97;;;6.53;;
19038;SDS011;9652;49.014;12.052;2023-02-15T09:44:57;9.00;;;6.20;;
19038;SDS011;9652;49.014;12.052;2023-02-15T09:47:50;9.27;;;6.47;;
19038;SDS011;9652;49.014;12.052;2023-02-15T09:50:59;10.50;;;6.67;;
19038;SDS011;9652;49.014;12.052;2023-02-15T09:53:53;9.27;;;6.80;;
19038;SDS011;9652;49.014;12.052;2023-02-15T09:56:42;9.03;;;6.67;;
19038;SDS011;9652;49.014;12.052;2023-02-15T09:59:19;7.87;;;6.20;;
19038;SDS011;9652;49.014;12.052;2023-02-15T10:02:02;8.43;;;6.70;;
19038;SDS011;9652;49.014;12.052;2023-02-15T10:04:54;10.07;;;7.63;;
19038;SDS011;9652;49.014;12.052;2023-02-15T10:07:42;9.70;;;6.77;;
19038;SDS011;9652;49.014;12.052;2023-02-15T10:10:50;8.40;;;5.87;;
19038;SDS011;9652;49.014;12.052;2023-02-15T10:13:53;8.37;;;6.43;;
19038;SDS011;9652;49.014;12.052;2023-02-15T10:16:38;9.83;;;5.93;;
19038;SDS011;9652;49.014;12.052;2023-02-15T10:19:20;9.20;;;6.67;;
19038;SDS011;9652;49.014;12.052;2023-02-15T10:22:04;9.43;;;6.70;;
19038;SDS011;9652;49.014;12.052;2023-02-15T10:24:54;8.97;;;6.83;;
19038;SDS011;9652;49.014;12.052;2023-02-15T10:27:39;9.07;;;6.80;;
19038;SDS011;9652;49.014;12.052;2023-02-15T10:32:51;6.83;;;5.70;;
19038;SDS011;9652;49.014;12.052;2023-02-15T10:35:27;7.77;;;5.90;;
19038;SDS011;9652;49.014;12.052;2023-02-15T10:38:07;10.03;;;6.83;;
19038;SDS011;9652;49.014;12.052;2023-02-15T10:40:55;10.67;;;6.93;;
19038;SDS011;9652;49.014;12.052;2023-02-15T10:43:45;9.40;;;5.80;;
19038;SDS011;9652;49.014;12.052;2023-02-15T10:46:36;7.07;;;6.03;;
19038;SDS011;9652;49.014;12.052;2023-02-15T10:49:28;9.30;;;6.30;;
19038;SDS011;9652;49.014;12.052;2023-02-15T10:52:20;8.37;;;6.57;;
19038;SDS011;9652;49.014;12.052;2023-02-15T10:55:02;8.77;;;6.47;;
19038;SDS011;9652;49.014;12.052;2023-02-15T10:57:39;9.73;;;6.90;;
19038;SDS011;9652;49.014;12.052;2023-02-15T11:00:22;10.70;;;6.60;;
19038;SDS011;9652;49.014;12.052;2023-02-15T11:03:05;9.53;;;6.70;;
19038;SDS011;9652;49.014;12.052;2023-02-15T11:05:54;9.70;;;7.13;;
19038;SDS011;9652;49.014;12.052;2023-02-15T11:08:31;10.43;;;7.03;;
19038;SDS011;9652;49.014;12.052;2023-02-15T11:11:03;9.70;;;7.27;;
19038;SDS011;9652;49.014;12.052;2023-02-15T11:13:37;9.77;;;6.83;;
19038;SDS011;9652;49.014;12.052;2023-02-15T11:16:12;9.70;;;6.80;;
19038;SDS011;9652;49.014;12.052;2023-02-15T11:18:48;8.23;;;6.30;;
19038;SDS011;9652;49.014;12.052;2023-02-15T11:21:22;10.70;;;6.93;;
19038;SDS011;9652;49.014;12.052;2023-02-15T11:23:54;10.47;;;7.07;;
19038;SDS011;9652;49.014;12.052;2023-02-15T11:26:24;10.57;;;7.07;;
19038;SDS011;9652;49.014;12.052;2023-02-15T11:29:00;9.97;;;7.10;;
19038;SDS011;9652;49.014;12.052;2023-02-15T11:31:37;11.83;;;7.57;;
19038;SDS011;9652;49.014;12.052;2023-02-15T11:34:13;11.70;;;7.83;;
19038;SDS011;9652;49.014;12.052;2023-02-15T11:36:49;10.77;;;7.30;;
19038;SDS011;9652;49.014;12.052;2023-02-15T11:39:21;9.17;;;6.87;;
19038;SDS011;9652;49.014;12.052;2023-02-15T11:41:55;10.23;;;7.10;;
19038;SDS011;9652;49.014;12.052;2023-02-15T11:44:37;11.63;;;7.37;;
19038;SDS011;9652;49.014;12.052;2023-02-15T11:47:10;11.27;;;7.73;;
19038;SDS011;9652;49.014;12.052;2023-02-15T11:49:40;8.90;;;7.00;;
19038;SDS011;9652;49.014;12.052;2023-02-15T11:52:07;11.60;;;7.70;;
19038;SDS011;9652;49.014;12.052;2023-02-15T11:54:41;10.27;;;6.63;;
19038;SDS011;9652;49.014;12.052;2023-02-15T11:57:12;11.07;;;7.90;;
19038;SDS011;9652;49.014;12.052;2023-02-15T11:59:45;12.13;;;7.93;;
19038;SDS011;9652;49.014;12.052;2023-02-15T12:02:19;11.80;;;8.00;;
19038;SDS011;9652;49.014;12.052;2023-02-15T12:04:51;11.47;;;7.73;;
19038;SDS011;9652;49.014;12.052;2023-02-15T12:07:25;10.13;;;6.90;;
19038;SDS011;9652;49.014;12.052;2023-02-15T12:10:00;12.93;;;7.53;;
19038;SDS011;9652;49.014;12.052;2023-02-15T12:12:37;12.87;;;8.00;;
19038;SDS011;9652;49.014;12.052;2023-02-15T12:15:05;11.17;;;7.53;;
19038;SDS011;9652;49.014;12.052;2023-02-15T12:17:37;12.17;;;7.80;;
19038;SDS011;9652;49.014;12.052;2023-02-15T12:22:59;10.00;;;6.63;;
19038;SDS011;9652;49.014;12.052;2023-02-15T12:25:32;11.10;;;7.57;;
19038;SDS011;9652;49.014;12.052;2023-02-15T12:28:03;10.90;;;7.17;;
19038;SDS011;9652;49.014;12.052;2023-02-15T12:30:47;9.67;;;7.50;;
19038;SDS011;9652;49.014;12.052;2023-02-15T12:33:18;11.37;;;7.27;;
19038;SDS011;9652;49.014;12.052;2023-02-15T12:35:57;9.73;;;7.07;;
19038;SDS011;9652;49.014;12.052;2023-02-15T12:38:29;9.90;;;6.83;;
19038;SDS011;9652;49.014;12.052;2023-02-15T12:40:57;15.13;;;8.40;;
19038;SDS011;9652;49.014;12.052;2023-02-15T12:43:29;13.10;;;8.27;;
19038;SDS011;9652;49.014;12.052;2023-02-15T12:46:12;12.27;;;8.40;;
19038;SDS011;9652;49.014;12.052;2023-02-15T12:48:56;12.07;;;8.37;;
19038;SDS011;9652;49.014;12.052;2023-02-15T12:51:44;12.80;;;8.10;;
19038;SDS011;9652;49.014;12.052;2023-02-15T12:57:17;12.00;;;8.07;;
19038;SDS011;9652;49.014;12.052;2023-02-15T12:59:54;10.83;;;7.77;;
19038;SDS011;9652;49.014;12.052;2023-02-15T13:02:30;14.47;;;9.00;;
19038;SDS011;9652;49.014;12.052;2023-02-15T13:05:04;12.03;;;8.17;;
19038;SDS011;9652;49.014;12.052;2023-02-15T13:07:47;12.60;;;8.83;;
19038;SDS011;9652;49.014;12.052;2023-02-15T13:10:19;13.07;;;8.70;;
19038;SDS011;9652;49.014;12.052;2023-02-15T13:12:50;15.67;;;10.07;;
19038;SDS011;9652;49.014;12.052;2023-02-15T13:15:27;15.77;;;9.87;;
19038;SDS011;9652;49.014;12.052;2023-02-15T13:18:02;14.40;;;8.77;;
19038;SDS011;9652;49.014;12.052;2023-02-15T13:20:36;15.40;;;9.40;;
19038;SDS011;9652;49.014;12.052;2023-02-15T13:23:13;12.77;;;9.00;;
19038;SDS011;9652;49.014;12.052;2023-02-15T13:25:54;13.60;;;9.57;;
19038;SDS011;9652;49.014;12.052;2023-02-15T13:28:25;15.77;;;9.87;;
19038;SDS011;9652;49.014;12.052;2023-02-15T13:31:03;13.90;;;9.03;;
19038;SDS011;9652;49.014;12.052;2023-02-15T13:33:38;11.23;;;8.37;;
19038;SDS011;9652;49.014;12.052;2023-02-15T13:36:12;15.60;;;9.77;;
19038;SDS011;9652;49.014;12.052;2023-02-15T13:38:54;13.60;;;9.67;;
19038;SDS011;9652;49.014;12.052;2023-02-15T13:41:39;16.40;;;9.43;;
19038;SDS011;9652;49.014;12.052;2023-02-15T13:44:20;15.43;;;10.00;;
19038;SDS011;9652;49.014;12.052;2023-02-15T13:47:06;14.37;;;9.33;;
19038;SDS011;9652;49.014;12.052;2023-02-15T13:49:50;15.30;;;9.07;;
19038;SDS011;9652;49.014;12.052;2023-02-15T13:52:35;14.20;;;9.47;;
19038;SDS011;9652;49.014;12.052;2023-02-15T13:58:25;13.63;;;7.87;;
19038;SDS011;9652;49.014;12.052;2023-02-15T14:01:31;13.43;;;8.53;;
19038;SDS011;9652;49.014;12.052;2023-02-15T14:07:33;14.90;;;9.03;;
19038;SDS011;9652;49.014;12.052;2023-02-15T14:10:21;11.63;;;8.57;;
19038;SDS011;9652;49.014;12.052;2023-02-15T14:13:29;16.30;;;9.77;;
19038;SDS011;9652;49.014;12.052;2023-02-15T14:16:24;11.33;;;7.93;;
19038;SDS011;9652;49.014;12.052;2023-02-15T14:19:05;13.50;;;8.13;;
19038;SDS011;9652;49.014;12.052;2023-02-15T14:21:46;13.07;;;8.37;;
19038;SDS011;9652;49.014;12.052;2023-02-15T14:24:25;12.53;;;8.80;;
19038;SDS011;9652;49.014;12.052;2023-02-15T14:27:07;13.67;;;9.23;;
19038;SDS011;9652;49.014;12.052;2023-02-15T14:29:49;15.40;;;8.93;;
19038;SDS011;9652;49.014;12.052;2023-02-15T14:32:23;17.07;;;10.33;;
19038;SDS011;9652;49.014;12.052;2023-02-15T14:34:58;14.30;;;9.33;;
19038;SDS011;9652;49.014;12.052;2023-02-15T14:37:35;15.20;;;9.33;;
19038;SDS011;9652;49.014;12.052;2023-02-15T14:40:15;15.37;;;9.00;;
19038;SDS011;9652;49.014;12.052;2023-02-15T14:43:18;14.60;;;9.07;;
19038;SDS011;9652;49.014;12.052;2023-02-15T14:45:58;12.57;;;8.97;;
19038;SDS011;9652;49.014;12.052;2023-02-15T14:48:37;16.23;;;9.47;;
19038;SDS011;9652;49.014;12.052;2023-02-15T14:51:13;14.77;;;9.23;;
19038;SDS011;9652;49.014;12.052;2023-02-15T14:57:35;13.33;;;8.70;;
19038;SDS011;9652;49.014;12.052;2023-02-15T15:00:28;13.57;;;8.53;;
19038;SDS011;9652;49.014;12.052;2023-02-15T15:03:03;14.87;;;9.20;;
19038;SDS011;9652;49.014;12.052;2023-02-15T15:05:48;12.30;;;8.43;;
19038;SDS011;9652;49.014;12.052;2023-02-15T15:08:22;14.10;;;8.87;;
19038;SDS011;9652;49.014;12.052;2023-02-15T15:10:59;11.57;;;8.50;;
19038;SDS011;9652;49.014;12.052;2023-02-15T15:14:10;13.47;;;8.37;;
19038;SDS011;9652;49.014;12.052;2023-02-15T15:17:08;14.07;;;8.70;;
19038;SDS011;9652;49.014;12.052;2023-02-15T15:22:39;15.80;;;9.57;;
19038;SDS011;9652;49.014;12.052;2023-02-15T15:25:09;13.77;;;9.40;;
19038;SDS011;9652;49.014;12.052;2023-02-15T15:28:00;13.00;;;8.70;;
19038;SDS011;9652;49.014;12.052;2023-02-15T15:46:32;14.60;;;8.40;;
19038;SDS011;9652;49.014;12.052;2023-02-15T15:49:34;15.10;;;8.73;;
19038;SDS011;9652;49.014;12.052;2023-02-15T15:52:08;16.07;;;9.33;;
19038;SDS011;9652;49.014;12.052;2023-02-15T15:54:42;15.07;;;8.97;;
19038;SDS011;9652;49.014;12.052;2023-02-15T15:57:15;17.40;;;10.50;;
19038;SDS011;9652;49.014;12.052;2023-02-15T15:59:54;14.63;;;9.33;;
19038;SDS011;9652;49.014;12.052;2023-02-15T16:02:24;13.23;;;8.33;;